sensor_id;sensor_type;location;lat;lon;timestamp;P1;durP1;ratioP1;P2;durP2;ratioP2
76765;SDS011;65707;52.362;6.588;2022-12-04T00:01:16;47.80;;;18.15;;
76765;SDS011;65707;52.362;6.588;2022-12-04T00:03:46;46.88;;;17.98;;
76765;SDS011;65707;52.362;6.588;2022-12-04T00:06:17;44.22;;;17.00;;
76765;SDS011;65707;52.362;6.588;2022-12-04T00:08:46;51.35;;;19.40;;
76765;SDS011;65707;52.362;6.588;2022-12-04T00:11:14;48.78;;;16.73;;
76765;SDS011;65707;52.362;6.588;2022-12-04T00:13:43;50.88;;;18.10;;
76765;SDS011;65707;52.362;6.588;2022-12-04T00:16:12;47.10;;;16.98;;
76765;SDS011;65707;52.362;6.588;2022-12-04T00:18:41;52.78;;;18.42;;
76765;SDS011;65707;52.362;6.588;2022-12-04T00:21:12;47.17;;;17.38;;
76765;SDS011;65707;52.362;6.588;2022-12-04T00:23:41;48.45;;;17.58;;
76765;SDS011;65707;52.362;6.588;2022-12-04T00:26:10;49.53;;;19.27;;
76765;SDS011;65707;52.362;6.588;2022-12-04T00:28:40;49.63;;;20.08;;
76765;SDS011;65707;52.362;6.588;2022-12-04T00:31:11;52.17;;;19.73;;
76765;SDS011;65707;52.362;6.588;2022-12-04T00:33:40;52.03;;;19.58;;
76765;SDS011;65707;52.362;6.588;2022-12-04T00:36:09;51.47;;;19.35;;
76765;SDS011;65707;52.362;6.588;2022-12-04T00:38:39;48.28;;;18.67;;
76765;SDS011;65707;52.362;6.588;2022-12-04T00:41:06;54.75;;;20.08;;
76765;SDS011;65707;52.362;6.588;2022-12-04T00:43:34;47.55;;;17.25;;
76765;SDS011;65707;52.362;6.588;2022-12-04T00:46:01;50.33;;;17.27;;
76765;SDS011;65707;52.362;6.588;2022-12-04T00:48:29;48.33;;;18.85;;
76765;SDS011;65707;52.362;6.588;2022-12-04T00:50:59;54.13;;;17.90;;
76765;SDS011;65707;52.362;6.588;2022-12-04T00:53:28;52.35;;;17.75;;
76765;SDS011;65707;52.362;6.588;2022-12-04T00:55:55;51.92;;;18.92;;
76765;SDS011;65707;52.362;6.588;2022-12-04T00:58:22;48.30;;;17.90;;
76765;SDS011;65707;52.362;6.588;2022-12-04T01:00:49;47.78;;;18.65;;
76765;SDS011;65707;52.362;6.588;2022-12-04T01:03:16;46.00;;;17.00;;
76765;SDS011;65707;52.362;6.588;2022-12-04T01:05:44;46.42;;;17.05;;
76765;SDS011;65707;52.362;6.588;2022-12-04T01:08:11;43.67;;;17.73;;
76765;SDS011;65707;52.362;6.588;2022-12-04T01:10:38;52.05;;;18.92;;
76765;SDS011;65707;52.362;6.588;2022-12-04T01:13:07;50.33;;;17.48;;
76765;SDS011;65707;52.362;6.588;2022-12-04T01:15:36;53.72;;;19.77;;
76765;SDS011;65707;52.362;6.588;2022-12-04T01:18:04;49.95;;;18.52;;
76765;SDS011;65707;52.362;6.588;2022-12-04T01:20:31;56.35;;;22.15;;
76765;SDS011;65707;52.362;6.588;2022-12-04T01:23:00;51.45;;;19.30;;
76765;SDS011;65707;52.362;6.588;2022-12-04T01:25:27;54.00;;;19.20;;
76765;SDS011;65707;52.362;6.588;2022-12-04T01:27:54;53.55;;;20.15;;
76765;SDS011;65707;52.362;6.588;2022-12-04T01:30:21;50.30;;;17.25;;
76765;SDS011;65707;52.362;6.588;2022-12-04T01:32:48;46.88;;;15.75;;
76765;SDS011;65707;52.362;6.588;2022-12-04T01:35:15;49.63;;;18.10;;
76765;SDS011;65707;52.362;6.588;2022-12-04T01:37:42;56.45;;;19.70;;
76765;SDS011;65707;52.362;6.588;2022-12-04T01:40:12;48.05;;;17.55;;
76765;SDS011;65707;52.362;6.588;2022-12-04T01:42:40;40.55;;;14.82;;
76765;SDS011;65707;52.362;6.588;2022-12-04T01:45:33;51.13;;;20.17;;
76765;SDS011;65707;52.362;6.588;2022-12-04T01:48:08;48.65;;;18.52;;
76765;SDS011;65707;52.362;6.588;2022-12-04T01:50:45;53.42;;;19.38;;
76765;SDS011;65707;52.362;6.588;2022-12-04T01:53:17;51.03;;;19.17;;
76765;SDS011;65707;52.362;6.588;2022-12-04T01:55:47;53.97;;;20.17;;
76765;SDS011;65707;52.362;6.588;2022-12-04T01:58:14;42.95;;;15.23;;
76765;SDS011;65707;52.362;6.588;2022-12-04T02:00:48;51.58;;;19.48;;
76765;SDS011;65707;52.362;6.588;2022-12-04T02:03:21;49.13;;;18.45;;
76765;SDS011;65707;52.362;6.588;2022-12-04T02:05:47;49.88;;;18.15;;
76765;SDS011;65707;52.362;6.588;2022-12-04T02:08:14;48.20;;;18.58;;
76765;SDS011;65707;52.362;6.588;2022-12-04T02:10:46;57.63;;;20.55;;
76765;SDS011;65707;52.362;6.588;2022-12-04T02:13:30;50.95;;;17.85;;
76765;SDS011;65707;52.362;6.588;2022-12-04T02:16:06;48.15;;;18.15;;
76765;SDS011;65707;52.362;6.588;2022-12-04T02:18:45;52.15;;;19.08;;
76765;SDS011;65707;52.362;6.588;2022-12-04T02:21:27;49.55;;;18.33;;
76765;SDS011;65707;52.362;6.588;2022-12-04T02:24:04;53.42;;;19.92;;
76765;SDS011;65707;52.362;6.588;2022-12-04T02:27:00;47.17;;;16.98;;
76765;SDS011;65707;52.362;6.588;2022-12-04T02:29:34;53.53;;;18.73;;
76765;SDS011;65707;52.362;6.588;2022-12-04T02:32:11;51.13;;;19.30;;
76765;SDS011;65707;52.362;6.588;2022-12-04T02:34:49;50.55;;;18.80;;
76765;SDS011;65707;52.362;6.588;2022-12-04T02:37:25;51.35;;;17.55;;
76765;SDS011;65707;52.362;6.588;2022-12-04T02:39:58;45.05;;;15.85;;
76765;SDS011;65707;52.362;6.588;2022-12-04T02:42:33;45.40;;;17.17;;
76765;SDS011;65707;52.362;6.588;2022-12-04T02:45:10;46.60;;;17.92;;
76765;SDS011;65707;52.362;6.588;2022-12-04T02:47:40;52.13;;;19.48;;
76765;SDS011;65707;52.362;6.588;2022-12-04T02:50:12;49.88;;;18.92;;
76765;SDS011;65707;52.362;6.588;2022-12-04T02:52:43;56.25;;;19.15;;
76765;SDS011;65707;52.362;6.588;2022-12-04T02:55:15;56.83;;;19.33;;
76765;SDS011;65707;52.362;6.588;2022-12-04T02:57:49;44.83;;;16.48;;
76765;SDS011;65707;52.362;6.588;2022-12-04T03:00:25;49.13;;;18.58;;
76765;SDS011;65707;52.362;6.588;2022-12-04T03:02:55;45.22;;;17.98;;
76765;SDS011;65707;52.362;6.588;2022-12-04T03:05:28;50.72;;;18.30;;
76765;SDS011;65707;52.362;6.588;2022-12-04T03:08:06;55.50;;;19.52;;
76765;SDS011;65707;52.362;6.588;2022-12-04T03:10:40;50.42;;;17.98;;
76765;SDS011;65707;52.362;6.588;2022-12-04T03:13:15;52.38;;;20.15;;
76765;SDS011;65707;52.362;6.588;2022-12-04T03:15:50;46.55;;;16.63;;
76765;SDS011;65707;52.362;6.588;2022-12-04T03:18:27;52.20;;;18.38;;
76765;SDS011;65707;52.362;6.588;2022-12-04T03:21:01;51.08;;;18.75;;
76765;SDS011;65707;52.362;6.588;2022-12-04T03:23:34;55.15;;;20.92;;
76765;SDS011;65707;52.362;6.588;2022-12-04T03:26:11;52.42;;;18.77;;
76765;SDS011;65707;52.362;6.588;2022-12-04T03:28:50;46.58;;;16.73;;
76765;SDS011;65707;52.362;6.588;2022-12-04T03:31:27;56.58;;;18.67;;
76765;SDS011;65707;52.362;6.588;2022-12-04T03:34:05;46.95;;;17.13;;
76765;SDS011;65707;52.362;6.588;2022-12-04T03:36:35;54.40;;;19.58;;
76765;SDS011;65707;52.362;6.588;2022-12-04T03:39:10;51.28;;;18.23;;
76765;SDS011;65707;52.362;6.588;2022-12-04T03:44:24;45.42;;;15.93;;
76765;SDS011;65707;52.362;6.588;2022-12-04T03:47:01;51.45;;;18.60;;
76765;SDS011;65707;52.362;6.588;2022-12-04T03:49:37;49.75;;;17.73;;
76765;SDS011;65707;52.362;6.588;2022-12-04T03:52:12;50.05;;;19.63;;
76765;SDS011;65707;52.362;6.588;2022-12-04T03:54:47;50.08;;;18.90;;
76765;SDS011;65707;52.362;6.588;2022-12-04T03:57:22;51.47;;;20.40;;
76765;SDS011;65707;52.362;6.588;2022-12-04T03:59:56;46.47;;;18.52;;
76765;SDS011;65707;52.362;6.588;2022-12-04T04:02:32;51.17;;;17.23;;
76765;SDS011;65707;52.362;6.588;2022-12-04T04:05:05;50.35;;;18.77;;
76765;SDS011;65707;52.362;6.588;2022-12-04T04:07:37;49.10;;;18.48;;
76765;SDS011;65707;52.362;6.588;2022-12-04T04:10:10;49.15;;;16.13;;
76765;SDS011;65707;52.362;6.588;2022-12-04T04:12:41;46.17;;;17.00;;
76765;SDS011;65707;52.362;6.588;2022-12-04T04:15:36;45.60;;;17.33;;
76765;SDS011;65707;52.362;6.588;2022-12-04T04:18:28;43.60;;;15.07;;
76765;SDS011;65707;52.362;6.588;2022-12-04T04:21:16;48.03;;;19.23;;
76765;SDS011;65707;52.362;6.588;2022-12-04T04:24:07;48.00;;;17.77;;
76765;SDS011;65707;52.362;6.588;2022-12-04T04:26:50;49.47;;;18.02;;
76765;SDS011;65707;52.362;6.588;2022-12-04T04:29:20;54.08;;;18.52;;
76765;SDS011;65707;52.362;6.588;2022-12-04T04:31:48;49.97;;;18.23;;
76765;SDS011;65707;52.362;6.588;2022-12-04T04:34:28;53.78;;;20.08;;
76765;SDS011;65707;52.362;6.588;2022-12-04T04:37:07;47.10;;;19.80;;
76765;SDS011;65707;52.362;6.588;2022-12-04T04:39:47;48.55;;;18.63;;
76765;SDS011;65707;52.362;6.588;2022-12-04T04:42:24;53.33;;;18.70;;
76765;SDS011;65707;52.362;6.588;2022-12-04T04:44:58;49.20;;;19.25;;
76765;SDS011;65707;52.362;6.588;2022-12-04T04:47:32;48.42;;;16.83;;
76765;SDS011;65707;52.362;6.588;2022-12-04T04:50:08;48.25;;;16.55;;
76765;SDS011;65707;52.362;6.588;2022-12-04T04:52:39;48.33;;;16.77;;
76765;SDS011;65707;52.362;6.588;2022-12-04T04:55:12;46.83;;;17.65;;
76765;SDS011;65707;52.362;6.588;2022-12-04T04:57:41;53.90;;;18.02;;
76765;SDS011;65707;52.362;6.588;2022-12-04T05:00:10;51.65;;;18.48;;
76765;SDS011;65707;52.362;6.588;2022-12-04T05:02:41;48.55;;;19.13;;
76765;SDS011;65707;52.362;6.588;2022-12-04T05:05:09;54.35;;;20.05;;
76765;SDS011;65707;52.362;6.588;2022-12-04T05:07:37;45.95;;;15.05;;
76765;SDS011;65707;52.362;6.588;2022-12-04T05:10:04;48.17;;;17.20;;
76765;SDS011;65707;52.362;6.588;2022-12-04T05:12:33;55.83;;;19.08;;
76765;SDS011;65707;52.362;6.588;2022-12-04T05:15:00;56.53;;;20.63;;
76765;SDS011;65707;52.362;6.588;2022-12-04T05:17:27;46.58;;;16.02;;
76765;SDS011;65707;52.362;6.588;2022-12-04T05:19:54;46.92;;;17.67;;
76765;SDS011;65707;52.362;6.588;2022-12-04T05:22:22;53.53;;;19.20;;
76765;SDS011;65707;52.362;6.588;2022-12-04T05:24:52;43.78;;;16.15;;
76765;SDS011;65707;52.362;6.588;2022-12-04T05:27:19;55.17;;;18.15;;
76765;SDS011;65707;52.362;6.588;2022-12-04T05:29:47;53.17;;;18.73;;
76765;SDS011;65707;52.362;6.588;2022-12-04T05:32:14;53.88;;;18.45;;
76765;SDS011;65707;52.362;6.588;2022-12-04T05:34:41;52.83;;;18.98;;
76765;SDS011;65707;52.362;6.588;2022-12-04T05:37:08;57.15;;;20.15;;
76765;SDS011;65707;52.362;6.588;2022-12-04T05:39:36;54.53;;;18.25;;
76765;SDS011;65707;52.362;6.588;2022-12-04T05:42:06;51.28;;;17.70;;
76765;SDS011;65707;52.362;6.588;2022-12-04T05:44:37;50.72;;;18.95;;
76765;SDS011;65707;52.362;6.588;2022-12-04T05:47:04;52.53;;;19.20;;
76765;SDS011;65707;52.362;6.588;2022-12-04T05:49:32;57.10;;;21.35;;
76765;SDS011;65707;52.362;6.588;2022-12-04T05:52:00;53.72;;;18.27;;
76765;SDS011;65707;52.362;6.588;2022-12-04T05:54:27;44.42;;;16.40;;
76765;SDS011;65707;52.362;6.588;2022-12-04T05:56:55;52.33;;;18.00;;
76765;SDS011;65707;52.362;6.588;2022-12-04T05:59:22;49.22;;;17.35;;
76765;SDS011;65707;52.362;6.588;2022-12-04T06:01:49;50.35;;;18.85;;
76765;SDS011;65707;52.362;6.588;2022-12-04T06:04:16;48.47;;;17.55;;
76765;SDS011;65707;52.362;6.588;2022-12-04T06:06:43;47.58;;;16.67;;
76765;SDS011;65707;52.362;6.588;2022-12-04T06:09:10;54.05;;;20.23;;
76765;SDS011;65707;52.362;6.588;2022-12-04T06:11:38;55.35;;;18.45;;
76765;SDS011;65707;52.362;6.588;2022-12-04T06:14:10;55.17;;;19.60;;
76765;SDS011;65707;52.362;6.588;2022-12-04T06:16:40;50.45;;;17.73;;
76765;SDS011;65707;52.362;6.588;2022-12-04T06:19:11;43.92;;;15.23;;
76765;SDS011;65707;52.362;6.588;2022-12-04T06:21:41;50.67;;;19.48;;
76765;SDS011;65707;52.362;6.588;2022-12-04T06:24:11;48.55;;;17.77;;
76765;SDS011;65707;52.362;6.588;2022-12-04T06:26:42;52.58;;;18.08;;
76765;SDS011;65707;52.362;6.588;2022-12-04T06:29:11;52.60;;;18.58;;
76765;SDS011;65707;52.362;6.588;2022-12-04T06:31:39;51.25;;;18.73;;
76765;SDS011;65707;52.362;6.588;2022-12-04T06:34:07;47.75;;;18.25;;
76765;SDS011;65707;52.362;6.588;2022-12-04T06:36:34;54.20;;;19.73;;
76765;SDS011;65707;52.362;6.588;2022-12-04T06:39:01;48.72;;;18.13;;
76765;SDS011;65707;52.362;6.588;2022-12-04T06:41:29;53.47;;;19.17;;
76765;SDS011;65707;52.362;6.588;2022-12-04T06:43:56;53.58;;;18.02;;
76765;SDS011;65707;52.362;6.588;2022-12-04T06:46:26;48.20;;;18.33;;
76765;SDS011;65707;52.362;6.588;2022-12-04T06:48:56;50.63;;;19.42;;
76765;SDS011;65707;52.362;6.588;2022-12-04T06:51:26;51.22;;;19.33;;
76765;SDS011;65707;52.362;6.588;2022-12-04T06:53:55;52.13;;;17.27;;
76765;SDS011;65707;52.362;6.588;2022-12-04T06:56:24;48.28;;;18.27;;
76765;SDS011;65707;52.362;6.588;2022-12-04T06:58:54;43.25;;;14.48;;
76765;SDS011;65707;52.362;6.588;2022-12-04T07:01:25;54.05;;;17.98;;
76765;SDS011;65707;52.362;6.588;2022-12-04T07:03:54;48.78;;;17.15;;
76765;SDS011;65707;52.362;6.588;2022-12-04T07:06:23;51.45;;;18.63;;
76765;SDS011;65707;52.362;6.588;2022-12-04T07:08:53;49.47;;;17.45;;
76765;SDS011;65707;52.362;6.588;2022-12-04T07:11:24;43.95;;;17.92;;
76765;SDS011;65707;52.362;6.588;2022-12-04T07:13:53;40.72;;;15.57;;
76765;SDS011;65707;52.362;6.588;2022-12-04T07:16:21;49.83;;;17.10;;
76765;SDS011;65707;52.362;6.588;2022-12-04T07:18:52;44.80;;;16.13;;
76765;SDS011;65707;52.362;6.588;2022-12-04T07:21:21;41.95;;;14.93;;
76765;SDS011;65707;52.362;6.588;2022-12-04T07:23:50;47.00;;;16.15;;
76765;SDS011;65707;52.362;6.588;2022-12-04T07:26:22;43.88;;;16.70;;
76765;SDS011;65707;52.362;6.588;2022-12-04T07:28:50;51.88;;;17.67;;
76765;SDS011;65707;52.362;6.588;2022-12-04T07:31:20;46.50;;;16.05;;
76765;SDS011;65707;52.362;6.588;2022-12-04T07:33:51;46.40;;;16.33;;
76765;SDS011;65707;52.362;6.588;2022-12-04T07:38:48;45.25;;;15.77;;
76765;SDS011;65707;52.362;6.588;2022-12-04T07:41:16;51.50;;;17.67;;
76765;SDS011;65707;52.362;6.588;2022-12-04T07:43:44;41.83;;;15.05;;
76765;SDS011;65707;52.362;6.588;2022-12-04T07:46:13;41.80;;;14.27;;
76765;SDS011;65707;52.362;6.588;2022-12-04T07:48:42;48.22;;;16.83;;
76765;SDS011;65707;52.362;6.588;2022-12-04T07:51:12;43.63;;;16.33;;
76765;SDS011;65707;52.362;6.588;2022-12-04T07:53:41;42.55;;;16.08;;
76765;SDS011;65707;52.362;6.588;2022-12-04T07:56:09;39.97;;;14.93;;
76765;SDS011;65707;52.362;6.588;2022-12-04T07:58:38;40.03;;;15.57;;
76765;SDS011;65707;52.362;6.588;2022-12-04T08:01:07;41.47;;;14.68;;
76765;SDS011;65707;52.362;6.588;2022-12-04T08:03:36;39.47;;;17.20;;
76765;SDS011;65707;52.362;6.588;2022-12-04T08:06:04;47.80;;;19.98;;
76765;SDS011;65707;52.362;6.588;2022-12-04T08:08:34;34.70;;;13.50;;
76765;SDS011;65707;52.362;6.588;2022-12-04T08:11:04;37.30;;;13.75;;
76765;SDS011;65707;52.362;6.588;2022-12-04T08:13:32;43.60;;;17.70;;
76765;SDS011;65707;52.362;6.588;2022-12-04T08:16:00;35.30;;;14.77;;
76765;SDS011;65707;52.362;6.588;2022-12-04T08:18:27;38.65;;;17.45;;
76765;SDS011;65707;52.362;6.588;2022-12-04T08:21:00;28.35;;;11.57;;
76765;SDS011;65707;52.362;6.588;2022-12-04T08:23:29;29.95;;;11.98;;
76765;SDS011;65707;52.362;6.588;2022-12-04T08:25:58;31.25;;;11.30;;
76765;SDS011;65707;52.362;6.588;2022-12-04T08:28:25;24.30;;;9.38;;
76765;SDS011;65707;52.362;6.588;2022-12-04T08:30:53;27.10;;;10.90;;
76765;SDS011;65707;52.362;6.588;2022-12-04T08:33:20;25.17;;;8.70;;
76765;SDS011;65707;52.362;6.588;2022-12-04T08:35:47;27.17;;;9.95;;
76765;SDS011;65707;52.362;6.588;2022-12-04T08:38:13;25.05;;;9.60;;
76765;SDS011;65707;52.362;6.588;2022-12-04T08:40:40;22.95;;;9.15;;
76765;SDS011;65707;52.362;6.588;2022-12-04T08:43:08;24.42;;;8.23;;
76765;SDS011;65707;52.362;6.588;2022-12-04T08:45:35;27.95;;;10.27;;
76765;SDS011;65707;52.362;6.588;2022-12-04T08:48:02;28.52;;;10.20;;
76765;SDS011;65707;52.362;6.588;2022-12-04T08:50:29;30.95;;;15.02;;
76765;SDS011;65707;52.362;6.588;2022-12-04T08:52:56;23.77;;;10.18;;
76765;SDS011;65707;52.362;6.588;2022-12-04T08:55:22;25.17;;;8.82;;
76765;SDS011;65707;52.362;6.588;2022-12-04T08:57:49;18.25;;;7.10;;
76765;SDS011;65707;52.362;6.588;2022-12-04T09:00:18;21.95;;;8.18;;
76765;SDS011;65707;52.362;6.588;2022-12-04T09:02:47;21.70;;;7.22;;
76765;SDS011;65707;52.362;6.588;2022-12-04T09:05:14;22.05;;;7.28;;
76765;SDS011;65707;52.362;6.588;2022-12-04T09:07:42;21.58;;;8.10;;
76765;SDS011;65707;52.362;6.588;2022-12-04T09:10:11;17.83;;;6.43;;
76765;SDS011;65707;52.362;6.588;2022-12-04T09:12:38;20.50;;;7.15;;
76765;SDS011;65707;52.362;6.588;2022-12-04T09:15:05;17.83;;;6.35;;
76765;SDS011;65707;52.362;6.588;2022-12-04T09:17:35;24.70;;;8.70;;
76765;SDS011;65707;52.362;6.588;2022-12-04T09:20:02;20.80;;;7.68;;
76765;SDS011;65707;52.362;6.588;2022-12-04T09:22:29;20.98;;;8.02;;
76765;SDS011;65707;52.362;6.588;2022-12-04T09:24:58;20.25;;;8.45;;
76765;SDS011;65707;52.362;6.588;2022-12-04T09:27:25;20.60;;;7.35;;
76765;SDS011;65707;52.362;6.588;2022-12-04T09:29:52;20.45;;;7.68;;
76765;SDS011;65707;52.362;6.588;2022-12-04T09:32:19;20.70;;;7.75;;
76765;SDS011;65707;52.362;6.588;2022-12-04T09:34:47;19.58;;;7.68;;
76765;SDS011;65707;52.362;6.588;2022-12-04T09:37:13;19.13;;;7.47;;
76765;SDS011;65707;52.362;6.588;2022-12-04T09:39:42;38.05;;;16.48;;
76765;SDS011;65707;52.362;6.588;2022-12-04T09:42:17;17.40;;;7.70;;
76765;SDS011;65707;52.362;6.588;2022-12-04T09:44:57;16.50;;;6.03;;
76765;SDS011;65707;52.362;6.588;2022-12-04T09:47:33;18.50;;;7.22;;
76765;SDS011;65707;52.362;6.588;2022-12-04T09:50:09;20.27;;;8.00;;
76765;SDS011;65707;52.362;6.588;2022-12-04T09:52:46;22.15;;;6.82;;
76765;SDS011;65707;52.362;6.588;2022-12-04T09:55:22;18.10;;;8.10;;
76765;SDS011;65707;52.362;6.588;2022-12-04T09:57:54;19.83;;;7.95;;
76765;SDS011;65707;52.362;6.588;2022-12-04T10:00:25;18.58;;;6.63;;
76765;SDS011;65707;52.362;6.588;2022-12-04T10:02:57;21.23;;;8.70;;
76765;SDS011;65707;52.362;6.588;2022-12-04T10:05:34;19.67;;;7.13;;
76765;SDS011;65707;52.362;6.588;2022-12-04T10:08:15;23.83;;;7.97;;
76765;SDS011;65707;52.362;6.588;2022-12-04T10:10:51;21.23;;;7.38;;
76765;SDS011;65707;52.362;6.588;2022-12-04T10:13:39;18.92;;;7.70;;
76765;SDS011;65707;52.362;6.588;2022-12-04T10:16:32;20.73;;;7.80;;
76765;SDS011;65707;52.362;6.588;2022-12-04T10:19:14;22.05;;;7.68;;
76765;SDS011;65707;52.362;6.588;2022-12-04T10:21:57;18.92;;;8.27;;
76765;SDS011;65707;52.362;6.588;2022-12-04T10:24:39;20.33;;;8.98;;
76765;SDS011;65707;52.362;6.588;2022-12-04T10:27:14;20.67;;;7.80;;
76765;SDS011;65707;52.362;6.588;2022-12-04T10:29:49;20.88;;;8.35;;
76765;SDS011;65707;52.362;6.588;2022-12-04T10:32:24;19.75;;;7.82;;
76765;SDS011;65707;52.362;6.588;2022-12-04T10:34:56;19.50;;;8.30;;
76765;SDS011;65707;52.362;6.588;2022-12-04T10:37:35;18.67;;;7.60;;
76765;SDS011;65707;52.362;6.588;2022-12-04T10:40:08;19.05;;;8.45;;
76765;SDS011;65707;52.362;6.588;2022-12-04T10:42:45;15.88;;;6.72;;
76765;SDS011;65707;52.362;6.588;2022-12-04T10:45:23;24.77;;;10.55;;
76765;SDS011;65707;52.362;6.588;2022-12-04T10:47:50;17.23;;;6.72;;
76765;SDS011;65707;52.362;6.588;2022-12-04T10:50:19;23.20;;;7.95;;
76765;SDS011;65707;52.362;6.588;2022-12-04T10:55:26;22.08;;;8.00;;
76765;SDS011;65707;52.362;6.588;2022-12-04T10:57:55;22.58;;;8.80;;
76765;SDS011;65707;52.362;6.588;2022-12-04T11:00:23;22.98;;;9.18;;
76765;SDS011;65707;52.362;6.588;2022-12-04T11:02:55;28.30;;;10.52;;
76765;SDS011;65707;52.362;6.588;2022-12-04T11:05:26;27.65;;;10.23;;
76765;SDS011;65707;52.362;6.588;2022-12-04T11:07:59;29.83;;;9.85;;
76765;SDS011;65707;52.362;6.588;2022-12-04T11:10:32;20.17;;;7.43;;
76765;SDS011;65707;52.362;6.588;2022-12-04T11:13:02;26.13;;;10.02;;
76765;SDS011;65707;52.362;6.588;2022-12-04T11:15:33;25.50;;;9.75;;
76765;SDS011;65707;52.362;6.588;2022-12-04T11:18:07;25.30;;;9.55;;
76765;SDS011;65707;52.362;6.588;2022-12-04T11:20:42;25.67;;;9.30;;
76765;SDS011;65707;52.362;6.588;2022-12-04T11:23:17;28.90;;;12.02;;
76765;SDS011;65707;52.362;6.588;2022-12-04T11:25:46;27.10;;;9.35;;
76765;SDS011;65707;52.362;6.588;2022-12-04T11:30:46;28.50;;;11.00;;
76765;SDS011;65707;52.362;6.588;2022-12-04T11:33:22;36.28;;;11.90;;
76765;SDS011;65707;52.362;6.588;2022-12-04T11:35:56;32.03;;;12.45;;
76765;SDS011;65707;52.362;6.588;2022-12-04T11:38:29;33.28;;;11.38;;
76765;SDS011;65707;52.362;6.588;2022-12-04T11:41:00;27.30;;;10.88;;
76765;SDS011;65707;52.362;6.588;2022-12-04T11:43:30;31.50;;;12.13;;
76765;SDS011;65707;52.362;6.588;2022-12-04T11:46:02;32.05;;;11.93;;
76765;SDS011;65707;52.362;6.588;2022-12-04T11:48:39;30.00;;;10.32;;
76765;SDS011;65707;52.362;6.588;2022-12-04T11:51:10;31.95;;;11.40;;
76765;SDS011;65707;52.362;6.588;2022-12-04T11:56:25;29.52;;;11.30;;
76765;SDS011;65707;52.362;6.588;2022-12-04T12:02:14;20.55;;;8.07;;
76765;SDS011;65707;52.362;6.588;2022-12-04T12:05:17;30.00;;;10.98;;
76765;SDS011;65707;52.362;6.588;2022-12-04T12:08:03;31.90;;;12.80;;
76765;SDS011;65707;52.362;6.588;2022-12-04T12:10:44;34.17;;;12.80;;
76765;SDS011;65707;52.362;6.588;2022-12-04T12:13:27;30.35;;;12.68;;
76765;SDS011;65707;52.362;6.588;2022-12-04T12:16:11;30.88;;;13.07;;
76765;SDS011;65707;52.362;6.588;2022-12-04T12:18:58;31.27;;;13.32;;
76765;SDS011;65707;52.362;6.588;2022-12-04T12:21:56;32.33;;;13.32;;
76765;SDS011;65707;52.362;6.588;2022-12-04T12:24:34;32.35;;;11.25;;
76765;SDS011;65707;52.362;6.588;2022-12-04T12:27:29;33.10;;;13.10;;
76765;SDS011;65707;52.362;6.588;2022-12-04T12:30:15;44.67;;;27.50;;
76765;SDS011;65707;52.362;6.588;2022-12-04T12:32:51;33.08;;;14.05;;
76765;SDS011;65707;52.362;6.588;2022-12-04T12:35:31;36.15;;;14.95;;
76765;SDS011;65707;52.362;6.588;2022-12-04T12:38:08;45.65;;;21.27;;
76765;SDS011;65707;52.362;6.588;2022-12-04T12:40:41;27.08;;;11.65;;
76765;SDS011;65707;52.362;6.588;2022-12-04T12:43:14;35.95;;;14.50;;
76765;SDS011;65707;52.362;6.588;2022-12-04T12:45:51;32.80;;;11.93;;
76765;SDS011;65707;52.362;6.588;2022-12-04T12:48:26;31.90;;;12.02;;
76765;SDS011;65707;52.362;6.588;2022-12-04T12:51:00;37.97;;;18.23;;
76765;SDS011;65707;52.362;6.588;2022-12-04T12:53:35;32.20;;;12.70;;
76765;SDS011;65707;52.362;6.588;2022-12-04T12:56:08;29.90;;;11.88;;
76765;SDS011;65707;52.362;6.588;2022-12-04T12:58:40;32.83;;;12.35;;
76765;SDS011;65707;52.362;6.588;2022-12-04T13:01:15;31.63;;;14.10;;
76765;SDS011;65707;52.362;6.588;2022-12-04T13:03:49;36.35;;;14.63;;
76765;SDS011;65707;52.362;6.588;2022-12-04T13:06:29;30.52;;;12.15;;
76765;SDS011;65707;52.362;6.588;2022-12-04T13:09:04;29.90;;;12.02;;
76765;SDS011;65707;52.362;6.588;2022-12-04T13:11:43;33.83;;;13.95;;
76765;SDS011;65707;52.362;6.588;2022-12-04T13:14:17;36.40;;;13.27;;
76765;SDS011;65707;52.362;6.588;2022-12-04T13:16:44;29.65;;;10.40;;
76765;SDS011;65707;52.362;6.588;2022-12-04T13:19:17;28.63;;;12.15;;
76765;SDS011;65707;52.362;6.588;2022-12-04T13:21:53;29.92;;;10.85;;
76765;SDS011;65707;52.362;6.588;2022-12-04T13:24:38;27.70;;;12.13;;
76765;SDS011;65707;52.362;6.588;2022-12-04T13:27:25;31.98;;;13.57;;
76765;SDS011;65707;52.362;6.588;2022-12-04T13:30:11;29.20;;;11.68;;
76765;SDS011;65707;52.362;6.588;2022-12-04T13:32:48;30.65;;;11.98;;
76765;SDS011;65707;52.362;6.588;2022-12-04T13:36:06;28.60;;;10.35;;
76765;SDS011;65707;52.362;6.588;2022-12-04T13:38:51;30.75;;;11.18;;
76765;SDS011;65707;52.362;6.588;2022-12-04T13:41:54;27.48;;;11.65;;
76765;SDS011;65707;52.362;6.588;2022-12-04T13:44:23;31.90;;;11.82;;
76765;SDS011;65707;52.362;6.588;2022-12-04T13:46:56;31.25;;;11.43;;
76765;SDS011;65707;52.362;6.588;2022-12-04T13:49:27;29.23;;;11.10;;
76765;SDS011;65707;52.362;6.588;2022-12-04T13:54:27;82.30;;;43.78;;
76765;SDS011;65707;52.362;6.588;2022-12-04T13:57:09;32.10;;;13.07;;
76765;SDS011;65707;52.362;6.588;2022-12-04T13:59:46;31.50;;;12.48;;
76765;SDS011;65707;52.362;6.588;2022-12-04T14:02:26;28.95;;;12.27;;
76765;SDS011;65707;52.362;6.588;2022-12-04T14:04:59;23.63;;;10.20;;
76765;SDS011;65707;52.362;6.588;2022-12-04T14:07:30;25.67;;;9.27;;
76765;SDS011;65707;52.362;6.588;2022-12-04T14:10:02;24.92;;;10.75;;
76765;SDS011;65707;52.362;6.588;2022-12-04T14:12:34;25.40;;;10.70;;
76765;SDS011;65707;52.362;6.588;2022-12-04T14:15:06;28.63;;;10.27;;
76765;SDS011;65707;52.362;6.588;2022-12-04T14:17:56;24.40;;;9.23;;
76765;SDS011;65707;52.362;6.588;2022-12-04T14:20:27;21.88;;;9.45;;
76765;SDS011;65707;52.362;6.588;2022-12-04T14:23:05;26.75;;;10.15;;
76765;SDS011;65707;52.362;6.588;2022-12-04T14:25:36;28.42;;;11.88;;
76765;SDS011;65707;52.362;6.588;2022-12-04T14:28:12;30.35;;;11.65;;
76765;SDS011;65707;52.362;6.588;2022-12-04T14:31:05;28.30;;;11.27;;
76765;SDS011;65707;52.362;6.588;2022-12-04T14:33:48;25.70;;;10.35;;
76765;SDS011;65707;52.362;6.588;2022-12-04T14:36:19;27.90;;;12.10;;
76765;SDS011;65707;52.362;6.588;2022-12-04T14:38:53;29.75;;;11.85;;
76765;SDS011;65707;52.362;6.588;2022-12-04T14:41:28;29.20;;;11.73;;
76765;SDS011;65707;52.362;6.588;2022-12-04T14:43:55;27.48;;;12.02;;
76765;SDS011;65707;52.362;6.588;2022-12-04T14:46:25;26.85;;;11.77;;
76765;SDS011;65707;52.362;6.588;2022-12-04T14:49:07;27.98;;;11.27;;
76765;SDS011;65707;52.362;6.588;2022-12-04T14:51:53;35.70;;;18.70;;
76765;SDS011;65707;52.362;6.588;2022-12-04T14:54:32;28.05;;;12.02;;
76765;SDS011;65707;52.362;6.588;2022-12-04T14:57:14;31.52;;;13.05;;
76765;SDS011;65707;52.362;6.588;2022-12-04T15:00:03;26.88;;;11.45;;
76765;SDS011;65707;52.362;6.588;2022-12-04T15:02:41;28.75;;;11.70;;
76765;SDS011;65707;52.362;6.588;2022-12-04T15:05:14;33.22;;;13.65;;
76765;SDS011;65707;52.362;6.588;2022-12-04T15:07:47;35.42;;;13.55;;
76765;SDS011;65707;52.362;6.588;2022-12-04T15:13:05;35.72;;;12.82;;
76765;SDS011;65707;52.362;6.588;2022-12-04T15:15:32;32.13;;;13.30;;
76765;SDS011;65707;52.362;6.588;2022-12-04T15:17:59;27.75;;;11.95;;